Endeavor CRJ2 at New York on Jan 5th 2014, runway excursion during turn off

Last Update: January 5, 2014 / 16:56:53 GMT/Zulu time

Bookmark this article
Incident Facts

Date of incident
Jan 5, 2014

Classification
Incident

Flight number
9E-4100

Aircraft Registration
N8758D

ICAO Type Designator
CRJ2

Airport ICAO Code
KJFK

An Endeavor Air (former Pinnacle) Canadair CRJ-200 on behalf of Delta Airlines, registration N8758D performing flight 9E-4100/DL-4100 from Toronto,ON (Canada) to New York JFK,NY (USA) with 35 people on board, landed on JFK'S runway 22L and slowed to taxi speed. While turning off at exit J at about 07:51L (12:51Z) the aircraft slid off paved surface and came to a stop on soft ground still penetrating the protected runway area. No injuries occurred.

The FAA confirmed the aircraft slid off the runway into snow while turning off onto the taxiway. The aircraft was subsequently towed to the apron with the passengers remaining on board. The airport was temporarily closed (for about two hours) to have run- and taxiways sanded.

Related NOTAMs:
01/153 (A0239/14) - RWY 4R/22L FICON PATCHY THIN WET SN OVER PATCHY ICE DEICED SOLID AND SANDED 12IN SNOWBANKS OBSERVED AT 1401051506. 05 JAN 16:32 2014 UNTIL 06 JAN 23:59 2014 ESTIMATED. CREATED: 05 JAN 16:32 2014

01/148 (A0233/14) - RWY 4L/22R FICON PATCHY THIN WET SN OVER PATCHY ICE DEICED SOLID AND SANDED 12IN SNOWBANKS OBSERVED AT 1401051520. 05 JAN 15:21 2014 UNTIL 06 JAN 23:59 2014 ESTIMATED. CREATED: 05 JAN 15:21 2014

Metars:
KJFK 051351Z 19003KT 5SM -FZRA BR FEW020 BKN030 BKN060 M01/M03 A3033 RMK AO2 SLP270 P0002 T10061028 $
KJFK 051251Z 00000KT 5SM -FZRA SCT018 BKN031 BKN060 M01/M03 A3033 RMK AO2 UPE03FZRAB04 SLP269 P0000 T10061033 $
KJFK 051228Z 00000KT 10SM -FZRA SCT018 BKN033 M01/M04 A3032 RMK AO2 UPE03FZRAB04 P0000 $
KJFK 051205Z 20003KT 10SM -FZRA FEW018 BKN026 OVC031 M01/M04 A3031 RMK AO2 UPE03FZRAB04 P0000 $
KJFK 051151Z COR 00000KT 9SM FEW018 OVC029 M01/M04 A3030 RMK AO2 CIG 021 W SLP260 4/006 P0000 60000 T10111044 11011 21050 58000 $
KJFK 051051Z 24005KT 10SM BKN022 OVC028 M02/M05 A3031 RMK AO2 SLP262 T10171050 $
KJFK 050951Z 23003KT 10SM BKN026 BKN033 M02/M06 A3030 RMK AO2 SLP261 T10221056 $
Incident Facts

Date of incident
Jan 5, 2014

Classification
Incident

Flight number
9E-4100

Aircraft Registration
N8758D

ICAO Type Designator
CRJ2

Airport ICAO Code
KJFK

This article is published under license from Avherald.com. © of text by Avherald.com.
Article source

You can read 2 more free articles without a subscription.

Subscribe now and continue reading without any limits!

Are you a subscriber? Login
Subscribe

Read unlimited articles and receive our daily update briefing. Gain better insights into what is happening in commercial aviation safety.

Free newsletter

Want to know more and stay ahead? Get our free weekly newsletter and join 5604 existing subscribers.

By subscribing, you accept our terms and conditions and confirm that you've read our privacy policy.

Send tip

Support AeroInside by sending a small tip amount.

Related articles

Newest articles

Subscribe today

Are you researching aviation incidents? Get access to AeroInside Insights, unlimited read access and receive the daily newsletter.

Pick your plan and subscribe

Partner

Blockaviation logo

A new way to document and demonstrate airworthiness compliance and aircraft value. Find out more.

Virtual Speech logo

ELITE Simulation Solutions is a leading global provider of Flight Simulation Training Devices, IFR training software as well as flight controls and related services. Find out more.

Get updates

Never miss an article from AeroInside. Subscribe to our free weekly newsletter and join 5604 existing subscribers.

By subscribing, you accept our terms and conditions and that you've read our privacy policy.

AeroInside Blog
Popular aircraft
Airbus A320
Boeing 737-800
Boeing 737-800 MAX
Popular airlines
American Airlines
United
Delta
Air Canada
Lufthansa
British Airways